KBEH/BEH METAR and TAF weather

Enter ICAO airport designator
Station Type Date Time Source
KBEH METAR 2020/07/08 20:53 UTC NOAA

KBEH 082053Z AUTO VRB03KT 10SM CLR 29/22 A2992 RMK AO2 SLP125 T02940217 56021


Station Type Date Time Source
KBEH Decoded METAR 2020/07/08 20:53 UTC NOAA

SOUTHWEST MICHIGAN REGIONAL, MI, United States (KBEH) 42-08N 86-25W 191M
Jul 08, 2020 - 04:53 PM EDT / 2020.07.08 2053 UTC
Wind: Variable at 3 MPH (3 KT):0
Visibility: 10 mile(s):0
Sky conditions: clear
Temperature: 84.9 F (29.4 C)
Dew Point: 71.1 F (21.7 C)
Relative Humidity: 63%
Pressure (altimeter): 29.92 in. Hg (1013 hPa)
Pressure tendency: 0.06 inches (2.1 hPa) lower than three hours ago
ob: KBEH 082053Z AUTO VRB03KT 10SM CLR 29/22 A2992 RMK AO2 SLP125 T02940217 56021
cycle: 21

Station Type Date Time Source
KBEH TAF UTC NOAA

Error!

Example: see airport list